sensor_id;sensor_type;location;lat;lon;timestamp;temperature;humidity
55213;DHT22;41083;52.932;6.674;2023-11-21T00:02:21;9.40;99.90
55213;DHT22;41083;52.932;6.674;2023-11-21T00:04:48;9.40;99.90
55213;DHT22;41083;52.932;6.674;2023-11-21T00:07:14;9.40;99.90
55213;DHT22;41083;52.932;6.674;2023-11-21T00:09:40;9.40;99.90
55213;DHT22;41083;52.932;6.674;2023-11-21T00:12:07;9.40;99.90
55213;DHT22;41083;52.932;6.674;2023-11-21T00:14:36;9.40;99.90
55213;DHT22;41083;52.932;6.674;2023-11-21T00:17:02;9.40;99.90
55213;DHT22;41083;52.932;6.674;2023-11-21T00:19:28;9.40;99.90
55213;DHT22;41083;52.932;6.674;2023-11-21T00:21:54;9.40;99.90
55213;DHT22;41083;52.932;6.674;2023-11-21T00:24:19;9.50;99.90
55213;DHT22;41083;52.932;6.674;2023-11-21T00:26:45;9.40;99.90
55213;DHT22;41083;52.932;6.674;2023-11-21T00:29:11;9.40;99.90
55213;DHT22;41083;52.932;6.674;2023-11-21T00:31:37;9.30;99.90
55213;DHT22;41083;52.932;6.674;2023-11-21T00:34:04;9.40;99.90
55213;DHT22;41083;52.932;6.674;2023-11-21T00:36:31;9.40;99.90
55213;DHT22;41083;52.932;6.674;2023-11-21T00:38:57;9.40;99.90
55213;DHT22;41083;52.932;6.674;2023-11-21T00:41:23;9.40;99.90
55213;DHT22;41083;52.932;6.674;2023-11-21T00:43:48;9.40;99.90
55213;DHT22;41083;52.932;6.674;2023-11-21T00:46:14;9.40;99.90
55213;DHT22;41083;52.932;6.674;2023-11-21T00:48:40;9.30;99.90
55213;DHT22;41083;52.932;6.674;2023-11-21T00:51:05;9.40;99.90
55213;DHT22;41083;52.932;6.674;2023-11-21T00:53:31;9.30;99.90
55213;DHT22;41083;52.932;6.674;2023-11-21T00:55:57;9.30;99.90
55213;DHT22;41083;52.932;6.674;2023-11-21T00:58:26;9.40;99.90
55213;DHT22;41083;52.932;6.674;2023-11-21T01:00:52;9.30;99.90
55213;DHT22;41083;52.932;6.674;2023-11-21T01:03:18;9.40;99.90
55213;DHT22;41083;52.932;6.674;2023-11-21T01:05:44;9.40;99.90
55213;DHT22;41083;52.932;6.674;2023-11-21T01:08:10;9.40;99.90
55213;DHT22;41083;52.932;6.674;2023-11-21T01:10:36;9.40;99.90
55213;DHT22;41083;52.932;6.674;2023-11-21T01:13:02;9.40;99.90
55213;DHT22;41083;52.932;6.674;2023-11-21T01:15:31;9.50;99.90
55213;DHT22;41083;52.932;6.674;2023-11-21T01:17:57;9.50;99.90
55213;DHT22;41083;52.932;6.674;2023-11-21T01:20:23;9.50;99.90
55213;DHT22;41083;52.932;6.674;2023-11-21T01:22:48;9.50;99.90
55213;DHT22;41083;52.932;6.674;2023-11-21T01:25:14;9.50;99.90
55213;DHT22;41083;52.932;6.674;2023-11-21T01:27:41;9.50;99.90
55213;DHT22;41083;52.932;6.674;2023-11-21T01:30:08;9.50;99.90
55213;DHT22;41083;52.932;6.674;2023-11-21T01:32:36;9.40;99.90
55213;DHT22;41083;52.932;6.674;2023-11-21T01:35:01;9.40;99.90
55213;DHT22;41083;52.932;6.674;2023-11-21T01:37:27;9.40;99.90
55213;DHT22;41083;52.932;6.674;2023-11-21T01:39:54;9.40;99.90
55213;DHT22;41083;52.932;6.674;2023-11-21T01:42:23;9.40;99.90
55213;DHT22;41083;52.932;6.674;2023-11-21T01:44:48;9.40;99.90
55213;DHT22;41083;52.932;6.674;2023-11-21T01:47:14;9.40;99.90
55213;DHT22;41083;52.932;6.674;2023-11-21T01:49:43;9.30;99.90
55213;DHT22;41083;52.932;6.674;2023-11-21T01:52:10;9.40;99.90
55213;DHT22;41083;52.932;6.674;2023-11-21T01:54:37;9.40;99.90
55213;DHT22;41083;52.932;6.674;2023-11-21T01:57:04;9.40;99.90
55213;DHT22;41083;52.932;6.674;2023-11-21T01:59:36;9.50;99.90
55213;DHT22;41083;52.932;6.674;2023-11-21T02:02:06;9.50;99.90
55213;DHT22;41083;52.932;6.674;2023-11-21T02:04:33;9.50;99.90
55213;DHT22;41083;52.932;6.674;2023-11-21T02:06:59;9.50;99.90
55213;DHT22;41083;52.932;6.674;2023-11-21T02:09:28;9.50;99.90
55213;DHT22;41083;52.932;6.674;2023-11-21T02:11:55;9.60;99.90
55213;DHT22;41083;52.932;6.674;2023-11-21T02:14:21;9.60;99.90
55213;DHT22;41083;52.932;6.674;2023-11-21T02:16:49;9.50;99.90
55213;DHT22;41083;52.932;6.674;2023-11-21T02:19:18;9.60;99.90
55213;DHT22;41083;52.932;6.674;2023-11-21T02:21:45;9.60;99.90
55213;DHT22;41083;52.932;6.674;2023-11-21T02:24:11;9.60;99.90
55213;DHT22;41083;52.932;6.674;2023-11-21T02:26:37;9.60;99.90
55213;DHT22;41083;52.932;6.674;2023-11-21T02:29:03;9.60;99.90
55213;DHT22;41083;52.932;6.674;2023-11-21T02:31:30;9.60;99.90
55213;DHT22;41083;52.932;6.674;2023-11-21T02:33:56;9.60;99.90
55213;DHT22;41083;52.932;6.674;2023-11-21T02:36:22;9.60;99.90
55213;DHT22;41083;52.932;6.674;2023-11-21T02:38:48;9.70;99.90
55213;DHT22;41083;52.932;6.674;2023-11-21T02:41:14;9.60;99.90
55213;DHT22;41083;52.932;6.674;2023-11-21T02:43:40;9.70;99.90
55213;DHT22;41083;52.932;6.674;2023-11-21T02:46:05;9.70;99.90
55213;DHT22;41083;52.932;6.674;2023-11-21T02:48:31;9.70;99.90
55213;DHT22;41083;52.932;6.674;2023-11-21T02:50:56;9.70;99.90
55213;DHT22;41083;52.932;6.674;2023-11-21T02:53:22;9.70;99.90
55213;DHT22;41083;52.932;6.674;2023-11-21T02:55:49;9.70;99.90
55213;DHT22;41083;52.932;6.674;2023-11-21T02:58:15;9.60;99.90
55213;DHT22;41083;52.932;6.674;2023-11-21T03:00:41;9.70;99.90
55213;DHT22;41083;52.932;6.674;2023-11-21T03:03:07;9.80;99.90
55213;DHT22;41083;52.932;6.674;2023-11-21T03:05:33;9.70;99.90
55213;DHT22;41083;52.932;6.674;2023-11-21T03:08:01;9.70;99.90
55213;DHT22;41083;52.932;6.674;2023-11-21T03:10:26;9.70;99.90
55213;DHT22;41083;52.932;6.674;2023-11-21T03:12:52;9.70;99.90
55213;DHT22;41083;52.932;6.674;2023-11-21T03:15:18;9.70;99.90
55213;DHT22;41083;52.932;6.674;2023-11-21T03:17:43;9.70;99.90
55213;DHT22;41083;52.932;6.674;2023-11-21T03:20:09;9.70;99.90
55213;DHT22;41083;52.932;6.674;2023-11-21T03:22:39;9.70;99.90
55213;DHT22;41083;52.932;6.674;2023-11-21T03:25:06;9.70;99.90
55213;DHT22;41083;52.932;6.674;2023-11-21T03:27:32;9.70;99.90
55213;DHT22;41083;52.932;6.674;2023-11-21T03:29:58;9.70;99.90
55213;DHT22;41083;52.932;6.674;2023-11-21T03:32:23;9.70;99.90
55213;DHT22;41083;52.932;6.674;2023-11-21T03:34:54;9.70;99.90
55213;DHT22;41083;52.932;6.674;2023-11-21T03:37:23;9.70;99.90
55213;DHT22;41083;52.932;6.674;2023-11-21T03:39:50;9.70;99.90
55213;DHT22;41083;52.932;6.674;2023-11-21T03:42:16;9.70;99.90
55213;DHT22;41083;52.932;6.674;2023-11-21T03:44:42;9.80;99.90
55213;DHT22;41083;52.932;6.674;2023-11-21T03:47:08;9.80;99.90
55213;DHT22;41083;52.932;6.674;2023-11-21T03:49:33;9.80;99.90
55213;DHT22;41083;52.932;6.674;2023-11-21T03:51:59;9.70;99.90
55213;DHT22;41083;52.932;6.674;2023-11-21T03:54:24;9.70;99.90
55213;DHT22;41083;52.932;6.674;2023-11-21T03:56:50;9.70;99.90
55213;DHT22;41083;52.932;6.674;2023-11-21T03:59:15;9.70;99.90
55213;DHT22;41083;52.932;6.674;2023-11-21T04:01:41;9.80;99.90
55213;DHT22;41083;52.932;6.674;2023-11-21T04:04:06;9.70;99.90
55213;DHT22;41083;52.932;6.674;2023-11-21T04:06:32;9.70;99.90
55213;DHT22;41083;52.932;6.674;2023-11-21T04:08:58;9.80;99.90
55213;DHT22;41083;52.932;6.674;2023-11-21T04:11:24;9.80;99.90
55213;DHT22;41083;52.932;6.674;2023-11-21T04:13:50;9.80;99.90
55213;DHT22;41083;52.932;6.674;2023-11-21T04:16:15;9.80;99.90
55213;DHT22;41083;52.932;6.674;2023-11-21T04:18:41;9.70;99.90
55213;DHT22;41083;52.932;6.674;2023-11-21T04:21:08;9.70;99.90
55213;DHT22;41083;52.932;6.674;2023-11-21T04:23:34;9.80;99.90
55213;DHT22;41083;52.932;6.674;2023-11-21T04:26:00;9.70;99.90
55213;DHT22;41083;52.932;6.674;2023-11-21T04:28:28;9.80;99.90
55213;DHT22;41083;52.932;6.674;2023-11-21T04:30:54;9.70;99.90
55213;DHT22;41083;52.932;6.674;2023-11-21T04:33:19;9.80;99.90
55213;DHT22;41083;52.932;6.674;2023-11-21T04:35:46;9.70;99.90
55213;DHT22;41083;52.932;6.674;2023-11-21T04:38:12;9.70;99.90
55213;DHT22;41083;52.932;6.674;2023-11-21T04:40:38;9.70;99.90
55213;DHT22;41083;52.932;6.674;2023-11-21T04:43:04;9.70;99.90
55213;DHT22;41083;52.932;6.674;2023-11-21T04:45:29;9.70;99.90
55213;DHT22;41083;52.932;6.674;2023-11-21T04:47:55;9.70;99.90
55213;DHT22;41083;52.932;6.674;2023-11-21T04:50:21;9.70;99.90
55213;DHT22;41083;52.932;6.674;2023-11-21T04:52:47;9.70;99.90
55213;DHT22;41083;52.932;6.674;2023-11-21T04:55:12;9.70;99.90
55213;DHT22;41083;52.932;6.674;2023-11-21T04:57:38;9.70;99.90
55213;DHT22;41083;52.932;6.674;2023-11-21T05:00:08;9.60;99.90
55213;DHT22;41083;52.932;6.674;2023-11-21T05:02:34;9.60;99.90
55213;DHT22;41083;52.932;6.674;2023-11-21T05:05:00;9.60;99.90
55213;DHT22;41083;52.932;6.674;2023-11-21T05:07:26;9.70;99.90
55213;DHT22;41083;52.932;6.674;2023-11-21T05:09:55;9.60;99.90
55213;DHT22;41083;52.932;6.674;2023-11-21T05:12:25;9.70;99.90
55213;DHT22;41083;52.932;6.674;2023-11-21T05:14:51;9.70;99.90
55213;DHT22;41083;52.932;6.674;2023-11-21T05:17:16;9.60;99.90
55213;DHT22;41083;52.932;6.674;2023-11-21T05:19:42;9.70;99.90
55213;DHT22;41083;52.932;6.674;2023-11-21T05:22:10;9.60;99.90
55213;DHT22;41083;52.932;6.674;2023-11-21T05:24:37;9.60;99.90
55213;DHT22;41083;52.932;6.674;2023-11-21T05:27:04;9.60;99.90
55213;DHT22;41083;52.932;6.674;2023-11-21T05:29:30;9.60;99.90
55213;DHT22;41083;52.932;6.674;2023-11-21T05:31:56;9.60;99.90
55213;DHT22;41083;52.932;6.674;2023-11-21T05:34:22;9.50;99.90
55213;DHT22;41083;52.932;6.674;2023-11-21T05:36:50;9.50;99.90
55213;DHT22;41083;52.932;6.674;2023-11-21T05:39:16;9.60;99.90
55213;DHT22;41083;52.932;6.674;2023-11-21T05:41:43;9.60;99.90
55213;DHT22;41083;52.932;6.674;2023-11-21T05:44:08;9.60;99.90
55213;DHT22;41083;52.932;6.674;2023-11-21T05:46:34;9.60;99.90
55213;DHT22;41083;52.932;6.674;2023-11-21T05:49:00;9.50;99.90
55213;DHT22;41083;52.932;6.674;2023-11-21T05:51:26;9.50;99.90
55213;DHT22;41083;52.932;6.674;2023-11-21T05:53:51;9.50;99.90
55213;DHT22;41083;52.932;6.674;2023-11-21T05:56:17;9.60;99.90
55213;DHT22;41083;52.932;6.674;2023-11-21T05:58:43;9.50;99.90
55213;DHT22;41083;52.932;6.674;2023-11-21T06:01:09;9.50;99.90
55213;DHT22;41083;52.932;6.674;2023-11-21T06:03:35;9.50;99.90
55213;DHT22;41083;52.932;6.674;2023-11-21T06:06:00;9.50;99.90
55213;DHT22;41083;52.932;6.674;2023-11-21T06:08:26;9.50;99.90
55213;DHT22;41083;52.932;6.674;2023-11-21T06:10:52;9.60;99.90
55213;DHT22;41083;52.932;6.674;2023-11-21T06:13:17;9.50;99.90
55213;DHT22;41083;52.932;6.674;2023-11-21T06:15:49;9.50;99.90
55213;DHT22;41083;52.932;6.674;2023-11-21T06:18:15;9.50;99.90
55213;DHT22;41083;52.932;6.674;2023-11-21T06:20:41;9.50;99.90
55213;DHT22;41083;52.932;6.674;2023-11-21T06:23:06;9.50;99.90
55213;DHT22;41083;52.932;6.674;2023-11-21T06:25:32;9.50;99.90
55213;DHT22;41083;52.932;6.674;2023-11-21T06:28:01;9.50;99.90
55213;DHT22;41083;52.932;6.674;2023-11-21T06:30:27;9.50;99.90
55213;DHT22;41083;52.932;6.674;2023-11-21T06:32:54;9.50;99.90
55213;DHT22;41083;52.932;6.674;2023-11-21T06:35:20;9.50;99.90
55213;DHT22;41083;52.932;6.674;2023-11-21T06:37:46;9.50;99.90
55213;DHT22;41083;52.932;6.674;2023-11-21T06:40:15;9.50;99.90
55213;DHT22;41083;52.932;6.674;2023-11-21T06:42:40;9.50;99.90
55213;DHT22;41083;52.932;6.674;2023-11-21T06:45:07;9.50;99.90
55213;DHT22;41083;52.932;6.674;2023-11-21T06:47:33;9.50;99.90
55213;DHT22;41083;52.932;6.674;2023-11-21T06:49:59;9.50;99.90
55213;DHT22;41083;52.932;6.674;2023-11-21T06:52:25;9.50;99.90
55213;DHT22;41083;52.932;6.674;2023-11-21T06:54:51;9.50;99.90
55213;DHT22;41083;52.932;6.674;2023-11-21T06:57:17;9.50;99.90
55213;DHT22;41083;52.932;6.674;2023-11-21T06:59:43;9.50;99.90
55213;DHT22;41083;52.932;6.674;2023-11-21T07:02:08;9.50;99.90
55213;DHT22;41083;52.932;6.674;2023-11-21T07:04:35;9.50;99.90
55213;DHT22;41083;52.932;6.674;2023-11-21T07:07:02;9.60;99.90
55213;DHT22;41083;52.932;6.674;2023-11-21T07:09:28;9.50;99.90
55213;DHT22;41083;52.932;6.674;2023-11-21T07:11:55;9.50;99.90
55213;DHT22;41083;52.932;6.674;2023-11-21T07:14:21;9.50;99.90
55213;DHT22;41083;52.932;6.674;2023-11-21T07:16:47;9.50;99.90
55213;DHT22;41083;52.932;6.674;2023-11-21T07:19:13;9.50;99.90
55213;DHT22;41083;52.932;6.674;2023-11-21T07:21:39;9.50;99.90
55213;DHT22;41083;52.932;6.674;2023-11-21T07:24:06;9.60;99.90
55213;DHT22;41083;52.932;6.674;2023-11-21T07:26:33;9.50;99.90
55213;DHT22;41083;52.932;6.674;2023-11-21T07:29:02;9.50;99.90
55213;DHT22;41083;52.932;6.674;2023-11-21T07:31:28;9.60;99.90
55213;DHT22;41083;52.932;6.674;2023-11-21T07:33:54;9.50;99.90
55213;DHT22;41083;52.932;6.674;2023-11-21T07:36:23;9.60;99.90
55213;DHT22;41083;52.932;6.674;2023-11-21T07:38:49;9.50;99.90
55213;DHT22;41083;52.932;6.674;2023-11-21T07:41:15;9.60;99.90
55213;DHT22;41083;52.932;6.674;2023-11-21T07:43:43;9.50;99.90
55213;DHT22;41083;52.932;6.674;2023-11-21T07:46:10;9.50;99.90
55213;DHT22;41083;52.932;6.674;2023-11-21T07:48:38;9.50;99.90
55213;DHT22;41083;52.932;6.674;2023-11-21T07:51:04;9.60;99.90
55213;DHT22;41083;52.932;6.674;2023-11-21T07:53:30;9.60;99.90
55213;DHT22;41083;52.932;6.674;2023-11-21T07:56:03;9.60;99.90
55213;DHT22;41083;52.932;6.674;2023-11-21T07:58:29;9.60;99.90
55213;DHT22;41083;52.932;6.674;2023-11-21T08:00:54;9.60;99.90
55213;DHT22;41083;52.932;6.674;2023-11-21T08:03:20;9.60;99.90
55213;DHT22;41083;52.932;6.674;2023-11-21T08:05:46;9.60;99.90
55213;DHT22;41083;52.932;6.674;2023-11-21T08:08:12;9.50;99.90
55213;DHT22;41083;52.932;6.674;2023-11-21T08:10:38;9.60;99.90
55213;DHT22;41083;52.932;6.674;2023-11-21T08:13:05;9.60;99.90
55213;DHT22;41083;52.932;6.674;2023-11-21T08:15:30;9.50;99.90
55213;DHT22;41083;52.932;6.674;2023-11-21T08:17:59;9.50;99.90
55213;DHT22;41083;52.932;6.674;2023-11-21T08:20:25;9.50;99.90
55213;DHT22;41083;52.932;6.674;2023-11-21T08:22:51;9.50;99.90
55213;DHT22;41083;52.932;6.674;2023-11-21T08:25:18;9.50;99.90
55213;DHT22;41083;52.932;6.674;2023-11-21T08:27:46;9.50;99.90
55213;DHT22;41083;52.932;6.674;2023-11-21T08:30:12;9.50;99.90
55213;DHT22;41083;52.932;6.674;2023-11-21T08:32:39;9.40;99.90
55213;DHT22;41083;52.932;6.674;2023-11-21T08:35:07;9.50;99.90
55213;DHT22;41083;52.932;6.674;2023-11-21T08:37:33;9.40;99.90
55213;DHT22;41083;52.932;6.674;2023-11-21T08:40:03;9.40;99.90
55213;DHT22;41083;52.932;6.674;2023-11-21T08:42:29;9.40;99.90
55213;DHT22;41083;52.932;6.674;2023-11-21T08:44:56;9.30;99.90
55213;DHT22;41083;52.932;6.674;2023-11-21T08:47:23;9.40;99.90
55213;DHT22;41083;52.932;6.674;2023-11-21T08:49:50;9.30;99.90
55213;DHT22;41083;52.932;6.674;2023-11-21T08:52:19;9.30;99.90
55213;DHT22;41083;52.932;6.674;2023-11-21T08:54:46;9.20;99.90
55213;DHT22;41083;52.932;6.674;2023-11-21T08:57:11;9.20;99.90
55213;DHT22;41083;52.932;6.674;2023-11-21T08:59:37;9.20;99.90
55213;DHT22;41083;52.932;6.674;2023-11-21T09:02:03;9.20;99.90
55213;DHT22;41083;52.932;6.674;2023-11-21T09:04:28;9.20;99.90
55213;DHT22;41083;52.932;6.674;2023-11-21T09:06:54;9.20;99.90
55213;DHT22;41083;52.932;6.674;2023-11-21T09:09:19;9.10;99.90
55213;DHT22;41083;52.932;6.674;2023-11-21T09:11:45;9.10;99.90
55213;DHT22;41083;52.932;6.674;2023-11-21T09:14:11;9.10;99.90
55213;DHT22;41083;52.932;6.674;2023-11-21T09:16:40;9.10;99.90
55213;DHT22;41083;52.932;6.674;2023-11-21T09:19:06;9.10;99.90
55213;DHT22;41083;52.932;6.674;2023-11-21T09:21:32;9.10;99.90
55213;DHT22;41083;52.932;6.674;2023-11-21T09:23:59;9.10;99.90
55213;DHT22;41083;52.932;6.674;2023-11-21T09:26:25;9.10;99.90
55213;DHT22;41083;52.932;6.674;2023-11-21T09:28:51;9.10;99.90
55213;DHT22;41083;52.932;6.674;2023-11-21T09:31:18;9.10;99.90
55213;DHT22;41083;52.932;6.674;2023-11-21T09:33:48;9.10;99.90
55213;DHT22;41083;52.932;6.674;2023-11-21T09:36:14;9.10;99.90
55213;DHT22;41083;52.932;6.674;2023-11-21T09:38:42;9.10;99.90
55213;DHT22;41083;52.932;6.674;2023-11-21T09:41:19;9.10;99.90
55213;DHT22;41083;52.932;6.674;2023-11-21T09:43:47;9.00;99.90
55213;DHT22;41083;52.932;6.674;2023-11-21T09:46:16;9.10;99.90
55213;DHT22;41083;52.932;6.674;2023-11-21T09:48:50;9.00;99.90
55213;DHT22;41083;52.932;6.674;2023-11-21T09:51:19;9.00;99.90
55213;DHT22;41083;52.932;6.674;2023-11-21T09:53:49;9.00;99.90
55213;DHT22;41083;52.932;6.674;2023-11-21T09:56:17;9.00;99.90
55213;DHT22;41083;52.932;6.674;2023-11-21T09:58:51;9.00;99.90
55213;DHT22;41083;52.932;6.674;2023-11-21T10:01:18;8.90;99.90
55213;DHT22;41083;52.932;6.674;2023-11-21T10:03:44;8.90;99.90
55213;DHT22;41083;52.932;6.674;2023-11-21T10:06:12;8.90;99.90
55213;DHT22;41083;52.932;6.674;2023-11-21T10:08:40;8.90;99.90
55213;DHT22;41083;52.932;6.674;2023-11-21T10:11:07;8.90;99.90
55213;DHT22;41083;52.932;6.674;2023-11-21T10:13:34;8.90;99.90
55213;DHT22;41083;52.932;6.674;2023-11-21T10:16:00;8.90;99.90
55213;DHT22;41083;52.932;6.674;2023-11-21T10:18:32;8.90;99.90
55213;DHT22;41083;52.932;6.674;2023-11-21T10:21:00;8.90;99.90
55213;DHT22;41083;52.932;6.674;2023-11-21T10:23:27;8.90;99.90
55213;DHT22;41083;52.932;6.674;2023-11-21T10:25:53;8.90;99.90
55213;DHT22;41083;52.932;6.674;2023-11-21T10:28:20;8.90;99.90
55213;DHT22;41083;52.932;6.674;2023-11-21T10:30:46;8.90;99.90
55213;DHT22;41083;52.932;6.674;2023-11-21T10:33:12;9.00;99.90
55213;DHT22;41083;52.932;6.674;2023-11-21T10:38:06;8.90;99.90
55213;DHT22;41083;52.932;6.674;2023-11-21T10:40:37;8.90;99.90
55213;DHT22;41083;52.932;6.674;2023-11-21T10:43:08;8.90;99.90
55213;DHT22;41083;52.932;6.674;2023-11-21T10:45:36;8.90;99.90
55213;DHT22;41083;52.932;6.674;2023-11-21T10:48:05;8.90;99.90
55213;DHT22;41083;52.932;6.674;2023-11-21T10:50:36;8.90;99.90
55213;DHT22;41083;52.932;6.674;2023-11-21T10:53:05;8.90;99.90
55213;DHT22;41083;52.932;6.674;2023-11-21T10:55:34;8.90;99.90
55213;DHT22;41083;52.932;6.674;2023-11-21T10:58:02;8.90;99.90
55213;DHT22;41083;52.932;6.674;2023-11-21T11:00:29;8.90;99.90
55213;DHT22;41083;52.932;6.674;2023-11-21T11:02:55;8.90;99.90
55213;DHT22;41083;52.932;6.674;2023-11-21T11:05:23;8.80;99.90
55213;DHT22;41083;52.932;6.674;2023-11-21T11:08:00;8.80;99.90
55213;DHT22;41083;52.932;6.674;2023-11-21T11:10:28;8.70;99.90
55213;DHT22;41083;52.932;6.674;2023-11-21T11:12:56;8.80;99.90
55213;DHT22;41083;52.932;6.674;2023-11-21T11:15:23;8.80;99.90
55213;DHT22;41083;52.932;6.674;2023-11-21T11:17:49;8.70;99.90
55213;DHT22;41083;52.932;6.674;2023-11-21T11:20:16;8.80;99.90
55213;DHT22;41083;52.932;6.674;2023-11-21T11:25:53;8.80;99.90
55213;DHT22;41083;52.932;6.674;2023-11-21T11:28:29;8.80;99.90
55213;DHT22;41083;52.932;6.674;2023-11-21T11:31:21;8.80;99.90
55213;DHT22;41083;52.932;6.674;2023-11-21T11:34:14;8.80;99.90
55213;DHT22;41083;52.932;6.674;2023-11-21T11:36:48;8.80;99.90
55213;DHT22;41083;52.932;6.674;2023-11-21T11:39:27;8.80;99.90
55213;DHT22;41083;52.932;6.674;2023-11-21T11:41:55;8.90;99.90
55213;DHT22;41083;52.932;6.674;2023-11-21T11:47:27;8.80;99.90
55213;DHT22;41083;52.932;6.674;2023-11-21T11:50:08;8.90;99.90
55213;DHT22;41083;52.932;6.674;2023-11-21T11:52:54;8.90;99.90
55213;DHT22;41083;52.932;6.674;2023-11-21T11:55:24;9.00;99.90
55213;DHT22;41083;52.932;6.674;2023-11-21T11:57:53;8.90;99.90
55213;DHT22;41083;52.932;6.674;2023-11-21T12:02:54;8.90;99.90
55213;DHT22;41083;52.932;6.674;2023-11-21T12:05:23;8.90;99.90
55213;DHT22;41083;52.932;6.674;2023-11-21T12:07:54;8.90;99.90
55213;DHT22;41083;52.932;6.674;2023-11-21T12:10:24;8.90;99.90
55213;DHT22;41083;52.932;6.674;2023-11-21T12:12:55;8.90;99.90
55213;DHT22;41083;52.932;6.674;2023-11-21T12:15:22;8.90;99.90
55213;DHT22;41083;52.932;6.674;2023-11-21T12:17:49;8.80;99.90
55213;DHT22;41083;52.932;6.674;2023-11-21T12:20:18;8.90;99.90
55213;DHT22;41083;52.932;6.674;2023-11-21T12:22:48;8.90;99.90
55213;DHT22;41083;52.932;6.674;2023-11-21T12:27:51;8.90;99.90
55213;DHT22;41083;52.932;6.674;2023-11-21T12:30:24;8.90;99.90
55213;DHT22;41083;52.932;6.674;2023-11-21T12:32:54;8.90;99.90
55213;DHT22;41083;52.932;6.674;2023-11-21T12:35:23;8.90;99.90
55213;DHT22;41083;52.932;6.674;2023-11-21T12:37:49;8.90;99.90
55213;DHT22;41083;52.932;6.674;2023-11-21T12:40:16;8.90;99.90
55213;DHT22;41083;52.932;6.674;2023-11-21T12:42:46;8.80;99.90
55213;DHT22;41083;52.932;6.674;2023-11-21T12:48:09;8.80;99.90
55213;DHT22;41083;52.932;6.674;2023-11-21T12:50:37;8.80;99.90
55213;DHT22;41083;52.932;6.674;2023-11-21T12:53:11;8.80;99.90
55213;DHT22;41083;52.932;6.674;2023-11-21T12:55:43;8.80;99.90
55213;DHT22;41083;52.932;6.674;2023-11-21T12:58:15;8.80;99.90
55213;DHT22;41083;52.932;6.674;2023-11-21T13:00:48;8.70;99.90
55213;DHT22;41083;52.932;6.674;2023-11-21T13:03:16;8.80;99.90
55213;DHT22;41083;52.932;6.674;2023-11-21T13:05:45;8.70;99.90
55213;DHT22;41083;52.932;6.674;2023-11-21T13:08:12;8.80;99.90
55213;DHT22;41083;52.932;6.674;2023-11-21T13:10:44;8.70;99.90
55213;DHT22;41083;52.932;6.674;2023-11-21T13:13:13;8.70;99.90
55213;DHT22;41083;52.932;6.674;2023-11-21T13:18:18;8.60;99.90
55213;DHT22;41083;52.932;6.674;2023-11-21T13:20:44;8.70;99.90
55213;DHT22;41083;52.932;6.674;2023-11-21T13:23:10;8.70;99.90
55213;DHT22;41083;52.932;6.674;2023-11-21T13:25:44;8.60;99.90
55213;DHT22;41083;52.932;6.674;2023-11-21T13:28:14;8.70;99.90
55213;DHT22;41083;52.932;6.674;2023-11-21T13:30:49;8.70;99.90
55213;DHT22;41083;52.932;6.674;2023-11-21T13:33:18;8.60;99.90
55213;DHT22;41083;52.932;6.674;2023-11-21T13:35:47;8.60;99.90
55213;DHT22;41083;52.932;6.674;2023-11-21T13:38:18;8.60;99.90
55213;DHT22;41083;52.932;6.674;2023-11-21T13:40:51;8.70;99.90
55213;DHT22;41083;52.932;6.674;2023-11-21T13:43:23;8.60;99.90
55213;DHT22;41083;52.932;6.674;2023-11-21T13:45:51;8.70;99.90
55213;DHT22;41083;52.932;6.674;2023-11-21T13:48:22;8.70;99.90
55213;DHT22;41083;52.932;6.674;2023-11-21T13:50:56;8.70;99.90
55213;DHT22;41083;52.932;6.674;2023-11-21T13:53:34;8.70;99.90
55213;DHT22;41083;52.932;6.674;2023-11-21T13:56:03;8.80;99.90
55213;DHT22;41083;52.932;6.674;2023-11-21T13:58:29;8.80;99.90
55213;DHT22;41083;52.932;6.674;2023-11-21T14:01:13;8.80;99.90
55213;DHT22;41083;52.932;6.674;2023-11-21T14:03:59;8.80;99.90
55213;DHT22;41083;52.932;6.674;2023-11-21T14:06:47;8.80;99.90
55213;DHT22;41083;52.932;6.674;2023-11-21T14:09:23;8.80;99.90
55213;DHT22;41083;52.932;6.674;2023-11-21T14:11:58;8.80;99.90
55213;DHT22;41083;52.932;6.674;2023-11-21T14:14:27;8.70;99.90
55213;DHT22;41083;52.932;6.674;2023-11-21T14:16:56;8.80;99.90
55213;DHT22;41083;52.932;6.674;2023-11-21T14:19:22;8.70;99.90
55213;DHT22;41083;52.932;6.674;2023-11-21T14:21:52;8.70;99.90
55213;DHT22;41083;52.932;6.674;2023-11-21T14:24:18;8.70;99.90
55213;DHT22;41083;52.932;6.674;2023-11-21T14:26:45;8.70;99.90
55213;DHT22;41083;52.932;6.674;2023-11-21T14:29:12;8.70;99.90
55213;DHT22;41083;52.932;6.674;2023-11-21T14:31:40;8.70;99.90
55213;DHT22;41083;52.932;6.674;2023-11-21T14:34:07;8.60;99.90
55213;DHT22;41083;52.932;6.674;2023-11-21T14:36:34;8.70;99.90
55213;DHT22;41083;52.932;6.674;2023-11-21T14:39:00;8.60;99.90
55213;DHT22;41083;52.932;6.674;2023-11-21T14:41:26;8.60;99.90
55213;DHT22;41083;52.932;6.674;2023-11-21T14:43:53;8.60;99.90
55213;DHT22;41083;52.932;6.674;2023-11-21T14:46:20;8.60;99.90
55213;DHT22;41083;52.932;6.674;2023-11-21T14:48:46;8.60;99.90
55213;DHT22;41083;52.932;6.674;2023-11-21T14:51:28;8.60;99.90
55213;DHT22;41083;52.932;6.674;2023-11-21T14:54:01;8.60;99.90
55213;DHT22;41083;52.932;6.674;2023-11-21T14:56:32;8.60;99.90
55213;DHT22;41083;52.932;6.674;2023-11-21T14:59:03;8.60;99.90
55213;DHT22;41083;52.932;6.674;2023-11-21T15:01:38;8.60;99.90
55213;DHT22;41083;52.932;6.674;2023-11-21T15:04:21;8.60;99.90
55213;DHT22;41083;52.932;6.674;2023-11-21T15:07:04;8.50;99.90
55213;DHT22;41083;52.932;6.674;2023-11-21T15:09:30;8.60;99.90
55213;DHT22;41083;52.932;6.674;2023-11-21T15:12:07;8.60;99.90
55213;DHT22;41083;52.932;6.674;2023-11-21T15:14:43;8.60;99.90
55213;DHT22;41083;52.932;6.674;2023-11-21T15:17:11;8.50;99.90
55213;DHT22;41083;52.932;6.674;2023-11-21T15:19:40;8.50;99.90
55213;DHT22;41083;52.932;6.674;2023-11-21T15:22:07;8.50;99.90
55213;DHT22;41083;52.932;6.674;2023-11-21T15:24:33;8.60;99.90
55213;DHT22;41083;52.932;6.674;2023-11-21T15:26:59;8.50;99.90
55213;DHT22;41083;52.932;6.674;2023-11-21T15:29:25;8.50;99.90
55213;DHT22;41083;52.932;6.674;2023-11-21T15:31:51;8.50;99.90
55213;DHT22;41083;52.932;6.674;2023-11-21T15:34:21;8.50;99.90
55213;DHT22;41083;52.932;6.674;2023-11-21T15:36:47;8.50;99.90
55213;DHT22;41083;52.932;6.674;2023-11-21T15:39:16;8.50;99.90
55213;DHT22;41083;52.932;6.674;2023-11-21T15:41:41;8.40;99.90
55213;DHT22;41083;52.932;6.674;2023-11-21T15:44:07;8.40;99.90
55213;DHT22;41083;52.932;6.674;2023-11-21T15:46:36;8.50;99.90
55213;DHT22;41083;52.932;6.674;2023-11-21T15:49:03;8.40;99.90
55213;DHT22;41083;52.932;6.674;2023-11-21T15:51:42;8.40;99.90
55213;DHT22;41083;52.932;6.674;2023-11-21T15:54:09;8.30;99.90
55213;DHT22;41083;52.932;6.674;2023-11-21T15:56:35;8.30;99.90
55213;DHT22;41083;52.932;6.674;2023-11-21T15:59:01;8.30;99.90
55213;DHT22;41083;52.932;6.674;2023-11-21T16:01:26;8.30;99.90
55213;DHT22;41083;52.932;6.674;2023-11-21T16:03:52;8.20;99.90
55213;DHT22;41083;52.932;6.674;2023-11-21T16:06:18;8.20;99.90
55213;DHT22;41083;52.932;6.674;2023-11-21T16:08:44;8.20;99.90